Time;durP1;ratioP1;P1;durP2;ratioP2;P2;SDS_P1;SDS_P2;PMS_P1;PMS_P2;Temp;Humidity;BMP_temperature;BMP_pressure;BME280_temperature;BME280_humidity;BME280_pressure;Samples;Min_cycle;Max_cycle;Signal;HPM_P1;HPM_P2
2020/12/20 00:02:10;;;;;;;18.45;13.43;;;;;;;5.95;76.15;100802.25;4980046;28;20150;-77
2020/12/20 00:04:38;;;;;;;18.52;13.68;;;;;;;5.90;76.17;100806.72;4964790;28;20101;-77
2020/12/20 00:07:19;;;;;;;17.10;12.85;;;;;;;5.88;76.65;100798.88;4973495;28;20046;-80
2020/12/20 00:09:46;;;;;;;18.35;13.02;;;;;;;5.85;76.39;100793.66;4971096;28;20073;-78
2020/12/20 00:12:13;;;;;;;16.17;12.90;;;;;;;5.89;75.92;100799.75;4968766;28;20134;-79
2020/12/20 00:14:40;;;;;;;16.73;11.77;;;;;;;5.84;76.24;100791.91;4965853;28;20038;-78
2020/12/20 00:17:09;;;;;;;20.15;14.07;;;;;;;5.84;76.41;100802.44;4970834;28;20175;-78
2020/12/20 00:19:37;;;;;;;18.42;14.27;;;;;;;5.80;76.06;100800.78;4976000;28;20137;-77
2020/12/20 00:22:11;;;;;;;19.23;13.00;;;;;;;5.82;76.80;100798.13;4972811;28;20094;-79
2020/12/20 00:24:39;;;;;;;18.58;13.73;;;;;;;5.82;76.48;100792.88;4972507;28;20035;-79
2020/12/20 00:27:06;;;;;;;18.08;14.00;;;;;;;5.84;76.58;100791.91;4978771;28;20153;-78
2020/12/20 00:29:33;;;;;;;17.40;13.40;;;;;;;5.83;76.54;100795.44;4974415;28;20141;-77
2020/12/20 00:32:01;;;;;;;18.30;13.43;;;;;;;5.81;76.58;100799.03;4967891;28;20035;-77
2020/12/20 00:34:27;;;;;;;18.65;13.68;;;;;;;5.81;76.56;100792.00;4970126;28;20046;-78
2020/12/20 00:36:54;;;;;;;19.25;13.63;;;;;;;5.76;76.71;100788.59;4966340;28;20155;-77
2020/12/20 00:39:21;;;;;;;17.85;12.98;;;;;;;5.75;76.66;100796.50;4963359;28;20086;-80
2020/12/20 00:41:53;;;;;;;19.08;13.43;;;;;;;5.76;76.62;100804.38;4972442;28;20065;-78
2020/12/20 00:44:20;;;;;;;18.00;13.43;;;;;;;5.78;77.15;100801.72;4975163;28;20054;-78
2020/12/20 00:46:47;;;;;;;20.23;13.57;;;;;;;5.77;77.18;100805.22;4962678;28;20061;-77
2020/12/20 00:49:24;;;;;;;18.50;13.68;;;;;;;5.72;77.58;100802.69;4962143;28;20057;-78
2020/12/20 00:51:52;;;;;;;19.52;14.13;;;;;;;5.72;78.16;100805.31;4966302;28;20497;-79
2020/12/20 00:54:19;;;;;;;19.42;13.98;;;;;;;5.70;77.62;100806.25;4968235;28;20047;-76
2020/12/20 00:56:46;;;;;;;19.58;14.75;;;;;;;5.73;77.31;100799.16;4969634;28;20061;-78
2020/12/20 00:59:13;;;;;;;18.85;13.23;;;;;;;5.72;77.42;100807.94;4974699;28;20125;-77
2020/12/20 01:01:40;;;;;;;16.88;13.10;;;;;;;5.67;77.87;100796.66;4966274;28;20424;-78
2020/12/20 01:04:07;;;;;;;21.35;14.57;;;;;;;5.65;78.59;100806.34;4967675;28;20042;-77
2020/12/20 01:06:33;;;;;;;18.92;13.90;;;;;;;5.63;78.49;100800.28;4961227;28;20101;-77
2020/12/20 01:09:00;;;;;;;18.88;13.77;;;;;;;5.67;77.93;100801.06;4971211;28;20049;-77
2020/12/20 01:11:27;;;;;;;19.83;14.32;;;;;;;5.67;78.17;100799.28;4958122;28;20121;-77
2020/12/20 01:13:54;;;;;;;20.00;14.45;;;;;;;5.68;78.65;100794.91;4964360;28;20493;-78
2020/12/20 01:16:23;;;;;;;20.35;13.95;;;;;;;5.64;78.25;100791.50;4963706;28;20125;-76
2020/12/20 01:18:50;;;;;;;21.08;14.48;;;;;;;5.65;78.68;100801.09;4953689;28;20138;-77
2020/12/20 01:21:17;;;;;;;19.90;14.48;;;;;;;5.60;78.83;100802.94;4965928;28;20061;-75
2020/12/20 01:23:45;;;;;;;21.55;14.68;;;;;;;5.52;78.76;100797.84;4964338;28;20094;-77
2020/12/20 01:26:12;;;;;;;19.63;14.27;;;;;;;5.49;78.84;100794.44;4965714;28;20879;-77
2020/12/20 01:28:39;;;;;;;22.02;14.48;;;;;;;5.44;79.01;100812.03;4953460;28;20051;-76
2020/12/20 01:31:07;;;;;;;20.25;14.35;;;;;;;5.44;78.94;100804.16;4962095;28;20098;-78
2020/12/20 01:33:35;;;;;;;22.08;14.82;;;;;;;5.47;78.86;100796.22;4959652;28;20775;-78
2020/12/20 01:36:10;;;;;;;20.77;14.52;;;;;;;5.48;79.64;100809.31;4967663;28;20807;-78
2020/12/20 01:38:37;;;;;;;21.88;15.00;;;;;;;5.46;79.65;100802.34;4965066;28;20500;-80
2020/12/20 01:41:05;;;;;;;20.80;15.40;;;;;;;5.39;79.90;100798.09;4960874;28;20055;-78
2020/12/20 01:43:46;;;;;;;21.52;15.40;;;;;;;5.38;80.12;100801.63;4974918;28;20045;-76
2020/12/20 01:46:17;;;;;;;20.73;14.55;;;;;;;5.34;79.62;100806.09;4964436;28;20039;-77
2020/12/20 01:48:46;;;;;;;22.23;15.60;;;;;;;5.33;80.37;100793.00;4963054;28;20154;-78
2020/12/20 01:51:13;;;;;;;22.70;14.90;;;;;;;5.29;80.45;100793.03;4964492;28;20051;-77
2020/12/20 01:53:41;;;;;;;23.60;15.93;;;;;;;5.24;80.25;100789.63;4966873;28;20053;-79
2020/12/20 01:56:08;;;;;;;25.42;16.65;;;;;;;5.19;80.55;100788.88;4964220;28;20042;-78
2020/12/20 01:58:37;;;;;;;22.33;15.68;;;;;;;5.16;80.52;100785.44;4966055;28;20086;-79
2020/12/20 02:01:06;;;;;;;24.65;16.23;;;;;;;5.11;80.11;100776.78;4965768;28;20456;-77
2020/12/20 02:03:32;;;;;;;22.58;15.45;;;;;;;5.05;80.07;100782.97;4961720;28;20082;-78
2020/12/20 02:06:00;;;;;;;24.38;15.73;;;;;;;5.03;80.88;100789.19;4967280;28;20113;-78
2020/12/20 02:08:26;;;;;;;24.15;15.43;;;;;;;5.02;80.57;100798.81;4964568;28;20043;-77
2020/12/20 02:11:06;;;;;;;24.45;16.50;;;;;;;5.02;80.69;100797.94;4967890;28;20386;-76
2020/12/20 02:13:32;;;;;;;22.17;15.05;;;;;;;5.05;80.73;100792.63;4963700;28;20494;-77
2020/12/20 02:15:59;;;;;;;22.75;15.52;;;;;;;5.09;81.09;100802.19;4973055;28;20058;-79
2020/12/20 02:18:26;;;;;;;24.20;15.73;;;;;;;5.10;81.24;100804.78;4961859;28;20061;-79
2020/12/20 02:20:52;;;;;;;24.45;16.02;;;;;;;5.13;81.32;100804.72;4968729;28;20430;-78
2020/12/20 02:23:20;;;;;;;24.38;15.50;;;;;;;5.11;80.40;100801.25;4964984;28;20054;-78
2020/12/20 02:25:51;;;;;;;22.92;15.93;;;;;;;5.06;80.39;100800.47;4967127;28;20129;-78
2020/12/20 02:28:19;;;;;;;25.35;15.40;;;;;;;5.07;80.37;100789.06;4972939;28;20115;-78
2020/12/20 02:30:46;;;;;;;21.58;15.10;;;;;;;5.09;79.71;100799.56;4967374;28;20034;-81
2020/12/20 02:33:13;;;;;;;23.55;15.38;;;;;;;5.07;79.72;100801.34;4971667;28;20058;-79
2020/12/20 02:35:44;;;;;;;22.75;15.57;;;;;;;4.98;79.92;100791.88;4962294;28;20054;-77
2020/12/20 02:38:11;;;;;;;23.25;15.25;;;;;;;4.94;80.34;100780.56;4970514;28;20042;-78
2020/12/20 02:40:39;;;;;;;21.15;14.45;;;;;;;4.97;80.26;100778.78;4975018;28;20122;-76
2020/12/20 02:43:07;;;;;;;24.40;15.88;;;;;;;5.02;80.21;100776.94;4969028;28;20134;-77
2020/12/20 02:45:33;;;;;;;21.40;15.40;;;;;;;5.00;80.02;100789.22;4968151;28;20054;-78
2020/12/20 02:48:00;;;;;;;22.95;16.10;;;;;;;5.01;81.18;100780.47;4978043;28;20133;-78
2020/12/20 02:50:33;;;;;;;24.02;15.38;;;;;;;5.02;81.22;100795.31;4983998;28;20058;-76
2020/12/20 02:52:59;;;;;;;21.23;14.77;;;;;;;5.04;80.43;100790.88;4972409;28;20463;-77
2020/12/20 02:55:26;;;;;;;21.30;15.68;;;;;;;4.97;80.25;100792.78;4963997;28;20070;-76
2020/12/20 02:57:53;;;;;;;23.02;15.88;;;;;;;4.91;80.84;100798.13;4965325;28;20126;-81
2020/12/20 03:00:20;;;;;;;23.48;15.82;;;;;;;4.89;80.93;100799.91;4991001;28;20106;-78
2020/12/20 03:02:48;;;;;;;22.65;16.00;;;;;;;4.90;80.51;100793.75;4986590;28;20118;-78
2020/12/20 03:05:17;;;;;;;22.88;16.40;;;;;;;4.87;81.25;100788.59;4990578;28;20043;-77
2020/12/20 03:07:48;;;;;;;22.83;15.55;;;;;;;4.89;81.37;100784.16;4989036;28;20043;-76
2020/12/20 03:10:17;;;;;;;22.88;15.07;;;;;;;4.96;80.74;100780.53;4962480;28;20574;-80
2020/12/20 03:12:44;;;;;;;24.05;16.20;;;;;;;4.97;80.39;100778.78;4966579;28;20058;-78
2020/12/20 03:15:11;;;;;;;23.52;16.25;;;;;;;4.94;80.71;100775.31;4963014;28;20059;-78
2020/12/20 03:17:38;;;;;;;24.17;16.00;;;;;;;4.92;80.14;100776.22;4970208;28;20051;-77
2020/12/20 03:20:05;;;;;;;25.05;16.15;;;;;;;4.89;80.76;100760.53;4960752;28;20244;-80
2020/12/20 03:22:32;;;;;;;23.83;16.63;;;;;;;4.89;80.74;100773.66;4965990;28;20163;-80
2020/12/20 03:24:59;;;;;;;22.98;15.48;;;;;;;4.93;80.39;100770.09;4975046;28;20182;-78
2020/12/20 03:27:26;;;;;;;24.63;16.40;;;;;;;4.92;80.07;100773.59;4970800;28;20050;-76
2020/12/20 03:29:52;;;;;;;25.10;16.73;;;;;;;4.89;80.32;100771.91;4969592;28;20051;-76
2020/12/20 03:32:18;;;;;;;23.55;16.70;;;;;;;4.85;79.91;100765.00;4963512;28;20039;-76
2020/12/20 03:34:45;;;;;;;24.75;15.80;;;;;;;4.86;80.60;100776.34;4966420;28;20053;-78
2020/12/20 03:37:11;;;;;;;22.80;15.75;;;;;;;4.85;80.53;100772.00;4951305;28;20517;-76
2020/12/20 03:39:38;;;;;;;25.65;16.83;;;;;;;4.87;80.68;100767.59;4974526;28;20077;-77
2020/12/20 03:42:04;;;;;;;25.38;16.10;;;;;;;4.85;80.78;100777.25;4963376;28;20058;-78
2020/12/20 03:44:31;;;;;;;23.80;15.77;;;;;;;4.88;80.09;100779.78;4974608;28;20042;-77
2020/12/20 03:46:58;;;;;;;22.92;16.17;;;;;;;4.89;79.82;100778.91;4992707;28;20045;-76
2020/12/20 03:49:24;;;;;;;21.73;14.93;;;;;;;4.87;79.90;100778.09;4956043;28;20126;-77
2020/12/20 03:51:51;;;;;;;21.05;14.77;;;;;;;4.89;79.79;100773.66;4950672;28;20477;-78
2020/12/20 03:54:17;;;;;;;23.40;16.15;;;;;;;4.87;79.58;100765.84;4971035;28;20073;-77
2020/12/20 03:56:43;;;;;;;21.90;15.55;;;;;;;4.87;80.04;100768.47;4966721;28;20039;-80
2020/12/20 03:59:10;;;;;;;23.30;15.95;;;;;;;4.89;79.86;100778.91;4964736;28;20042;-76
2020/12/20 04:01:36;;;;;;;26.27;16.88;;;;;;;4.89;80.42;100768.41;4967049;28;20042;-77
2020/12/20 04:04:02;;;;;;;22.83;15.50;;;;;;;4.89;80.17;100773.66;4967111;28;20126;-76
2020/12/20 04:06:29;;;;;;;24.80;16.27;;;;;;;4.90;80.38;100785.88;4970930;28;20073;-77
2020/12/20 04:08:55;;;;;;;22.65;15.40;;;;;;;4.90;79.94;100789.38;4962953;28;20045;-76
2020/12/20 04:11:22;;;;;;;24.17;15.57;;;;;;;4.90;79.97;100785.88;4993248;28;20060;-82
2020/12/20 04:13:48;;;;;;;24.15;16.27;;;;;;;4.85;80.41;100785.13;4960303;28;20051;-77
2020/12/20 04:16:14;;;;;;;24.45;16.42;;;;;;;4.85;80.01;100787.75;4967138;28;20045;-76
2020/12/20 04:18:41;;;;;;;22.13;15.93;;;;;;;4.90;80.65;100797.25;4966873;28;20047;-77
2020/12/20 04:21:07;;;;;;;25.25;16.40;;;;;;;4.87;80.62;100796.47;4966363;28;20049;-76
2020/12/20 04:23:33;;;;;;;23.85;16.08;;;;;;;4.90;80.65;100788.50;4973219;28;20046;-76
2020/12/20 04:26:00;;;;;;;24.65;16.52;;;;;;;4.86;81.09;100787.72;4965819;28;20114;-76
2020/12/20 04:28:27;;;;;;;24.05;16.13;;;;;;;4.82;81.47;100785.16;4955310;28;20592;-78
2020/12/20 04:30:53;;;;;;;24.92;16.42;;;;;;;4.81;82.12;100779.06;4970202;28;20039;-77
2020/12/20 04:33:20;;;;;;;23.88;15.77;;;;;;;4.82;81.35;100774.66;4971196;28;20062;-76
2020/12/20 04:35:47;;;;;;;24.30;16.30;;;;;;;4.77;81.78;100768.63;4962558;28;20105;-78
2020/12/20 04:38:13;;;;;;;25.70;16.52;;;;;;;4.75;82.52;100770.41;4946137;28;20121;-77
2020/12/20 04:40:41;;;;;;;28.77;17.90;;;;;;;4.70;83.82;100764.41;4963156;28;20146;-77
2020/12/20 04:43:11;;;;;;;26.65;17.92;;;;;;;4.70;84.15;100775.75;4958632;28;20395;-78
2020/12/20 04:45:39;;;;;;;26.83;17.13;;;;;;;4.67;84.61;100783.66;4955169;28;20134;-76
2020/12/20 04:48:05;;;;;;;27.80;17.40;;;;;;;4.64;85.10;100781.09;4960647;28;20102;-77
2020/12/20 04:50:33;;;;;;;27.02;17.63;;;;;;;4.60;85.38;100784.66;4961033;28;20171;-76
2020/12/20 04:53:00;;;;;;;27.52;18.13;;;;;;;4.52;85.37;100782.16;4976544;28;20142;-77
2020/12/20 04:55:27;;;;;;;26.15;17.30;;;;;;;4.43;85.97;100787.53;4964823;28;20107;-79
2020/12/20 04:57:54;;;;;;;25.67;16.98;;;;;;;4.37;86.54;100787.66;4961583;28;20046;-77
2020/12/20 05:00:22;;;;;;;28.05;18.88;;;;;;;4.35;86.96;100791.19;4967914;28;20077;-78
2020/12/20 05:02:49;;;;;;;28.88;18.08;;;;;;;4.35;87.21;100781.56;4963612;28;20050;-77
2020/12/20 05:05:15;;;;;;;27.45;17.67;;;;;;;4.34;86.69;100776.34;4963869;28;20466;-77
2020/12/20 05:07:43;;;;;;;30.13;17.92;;;;;;;4.32;87.29;100776.38;4971418;28;20105;-77
2020/12/20 05:10:10;;;;;;;26.42;17.60;;;;;;;4.31;87.83;100776.38;4982499;28;20133;-82
2020/12/20 05:12:36;;;;;;;30.60;19.20;;;;;;;4.33;87.79;100780.72;4994196;28;20353;-79
2020/12/20 05:15:21;;;;;;;28.10;17.88;;;;;;;4.31;88.37;100777.25;4984712;28;20102;-79
2020/12/20 05:17:47;;;;;;;28.67;17.38;;;;;;;4.33;88.13;100778.09;4968551;28;20142;-77
2020/12/20 05:20:34;;;;;;;31.83;19.30;;;;;;;4.36;87.95;100778.06;4969479;28;20038;-77
2020/12/20 05:23:01;;;;;;;28.33;18.30;;;;;;;4.38;87.97;100784.16;4962945;28;20474;-77
2020/12/20 05:25:29;;;;;;;27.60;18.35;;;;;;;4.38;88.15;100784.16;4970150;28;20069;-79
2020/12/20 05:28:21;;;;;;;26.65;18.13;;;;;;;4.48;88.64;100790.97;4960124;28;20050;-78
2020/12/20 05:30:49;;;;;;;27.27;17.40;;;;;;;4.53;88.58;100788.28;4946841;28;20062;-78
2020/12/20 05:33:26;;;;;;;27.10;17.73;;;;;;;4.57;87.49;100796.06;4966755;28;20034;-77
2020/12/20 05:36:07;;;;;;;26.75;16.65;;;;;;;4.59;87.24;100796.03;4969351;28;20069;-78
2020/12/20 05:38:35;;;;;;;27.67;17.63;;;;;;;4.59;86.27;100802.16;4974626;28;20081;-77
2020/12/20 05:41:03;;;;;;;25.42;16.95;;;;;;;4.59;86.24;100793.41;4969761;28;20047;-78
2020/12/20 05:43:31;;;;;;;26.00;17.60;;;;;;;4.64;85.65;100794.22;4972837;28;20053;-78
2020/12/20 05:45:58;;;;;;;25.98;17.02;;;;;;;4.64;85.95;100788.97;4970467;28;20074;-77
2020/12/20 05:48:27;;;;;;;26.83;17.20;;;;;;;4.68;86.24;100792.41;4966225;28;20135;-77
2020/12/20 05:51:00;;;;;;;27.95;17.85;;;;;;;4.70;87.25;100790.63;4959873;28;20057;-77
2020/12/20 05:53:32;;;;;;;27.02;17.60;;;;;;;4.73;87.34;100793.19;4967362;28;20050;-79
2020/12/20 05:56:02;;;;;;;24.80;16.58;;;;;;;4.79;86.22;100785.22;4966575;28;20055;-78
2020/12/20 05:58:33;;;;;;;26.92;16.88;;;;;;;4.72;85.91;100796.72;4966877;28;20085;-77
2020/12/20 06:01:01;;;;;;;27.40;16.67;;;;;;;4.71;86.15;100792.38;4968856;28;20053;-77
2020/12/20 06:03:28;;;;;;;27.55;17.58;;;;;;;4.69;86.47;100788.91;4961524;28;20127;-77
2020/12/20 06:05:59;;;;;;;24.70;16.95;;;;;;;4.67;85.95;100791.53;4970608;28;20055;-77
2020/12/20 06:08:30;;;;;;;26.55;17.65;;;;;;;4.62;85.84;100784.63;4980105;28;20414;-75
2020/12/20 06:10:56;;;;;;;;;;;;;;;4.59;86.42;100791.66;4961249;28;20055;-76
2020/12/20 06:13:24;;;;;;;25.67;16.27;;;;;;;4.58;87.19;100789.91;4973913;28;19918;-75
2020/12/20 06:15:57;;;;;;;25.52;16.83;;;;;;;4.61;86.99;100802.13;4977826;28;20042;-77
2020/12/20 06:18:28;;;;;;;27.30;17.30;;;;;;;4.56;87.25;100810.06;4960780;28;20099;-77
2020/12/20 06:21:00;;;;;;;25.50;16.85;;;;;;;4.54;87.66;100811.88;4966194;28;20063;-77
2020/12/20 06:23:30;;;;;;;28.52;17.73;;;;;;;4.51;88.18;100809.28;4972038;28;20046;-80
2020/12/20 06:25:59;;;;;;;26.15;17.90;;;;;;;4.55;87.47;100808.34;4970283;28;20054;-77
2020/12/20 06:28:33;;;;;;;26.35;16.80;;;;;;;4.55;87.27;100810.97;4969586;28;20966;-78
2020/12/20 06:31:03;;;;;;;26.48;17.23;;;;;;;4.51;87.31;100806.66;4970449;28;20482;-76
2020/12/20 06:33:35;;;;;;;26.77;17.40;;;;;;;4.53;87.08;100811.88;4962245;28;20168;-77
2020/12/20 06:36:03;;;;;;;26.45;17.70;;;;;;;4.49;87.51;100808.44;4964477;28;20134;-74
2020/12/20 06:38:29;;;;;;;25.20;16.70;;;;;;;4.52;87.65;100808.38;4968685;28;20050;-76
2020/12/20 06:40:56;;;;;;;25.55;17.17;;;;;;;4.55;87.91;100818.84;4980010;28;20089;-78
2020/12/20 06:43:33;;;;;;;25.58;17.42;;;;;;;4.55;87.90;100805.72;4981544;28;20479;-76
2020/12/20 06:46:01;;;;;;;26.95;17.83;;;;;;;4.58;87.90;100807.41;4976031;28;20126;-76
2020/12/20 06:48:35;;;;;;;28.65;17.05;;;;;;;4.56;88.35;100810.06;4984920;28;20153;-76
2020/12/20 06:51:07;;;;;;;27.55;17.48;;;;;;;4.61;88.70;100815.22;4978698;28;20051;-76
2020/12/20 06:53:45;;;;;;;26.80;17.52;;;;;;;4.67;88.75;100809.91;4973275;28;20129;-75
2020/12/20 06:56:14;;;;;;;27.67;17.73;;;;;;;4.67;88.59;100812.53;4979901;28;20042;-77
2020/12/20 06:58:41;;;;;;;26.75;17.38;;;;;;;4.69;88.51;100823.00;4972447;28;20053;-77
2020/12/20 07:01:07;;;;;;;27.45;17.25;;;;;;;4.71;88.45;100815.97;4968517;28;20482;-77
2020/12/20 07:03:38;;;;;;;28.02;17.52;;;;;;;4.70;87.95;100820.34;4979648;28;20042;-77
2020/12/20 07:06:16;;;;;;;26.13;17.25;;;;;;;4.68;88.68;100824.75;4962470;28;20071;-78
2020/12/20 07:09:00;;;;;;;30.63;17.15;;;;;;;4.66;88.31;100828.28;4967579;28;20134;-78
2020/12/20 07:11:28;;;;;;;27.50;17.93;;;;;;;4.64;88.49;100822.19;4962651;28;20047;-75
2020/12/20 07:13:56;;;;;;;26.40;17.50;;;;;;;4.59;88.07;100828.38;4969687;28;20467;-79
2020/12/20 07:16:38;;;;;;;24.85;16.50;;;;;;;4.53;89.20;100825.88;4965461;28;20050;-76
2020/12/20 07:19:06;;;;;;;28.48;17.83;;;;;;;4.51;89.06;100832.88;4963548;28;20075;-77
2020/12/20 07:21:56;;;;;;;26.70;18.20;;;;;;;4.49;88.73;100834.66;4972198;28;20054;-78
2020/12/20 07:24:30;;;;;;;28.50;18.13;;;;;;;4.46;89.96;100833.84;4959853;28;20055;-77
2020/12/20 07:27:05;;;;;;;32.00;19.40;;;;;;;4.45;90.41;100835.59;4963512;28;20058;-80
2020/12/20 07:29:34;;;;;;;30.95;19.85;;;;;;;4.49;90.71;100832.03;4965584;28;20387;-76
2020/12/20 07:32:03;;;;;;;31.73;19.70;;;;;;;4.49;91.44;100834.66;4972721;28;20055;-76
2020/12/20 07:34:30;;;;;;;31.77;19.70;;;;;;;4.49;92.09;100842.53;4967105;28;20082;-81
2020/12/20 07:36:57;;;;;;;33.63;20.38;;;;;;;4.46;91.89;100839.94;4960172;28;20486;-76
2020/12/20 07:39:24;;;;;;;33.00;20.33;;;;;;;4.47;91.46;100841.69;4960553;28;20050;-77
2020/12/20 07:41:52;;;;;;;31.33;19.88;;;;;;;4.46;91.46;100842.56;4962788;28;20113;-76
2020/12/20 07:44:18;;;;;;;30.48;19.80;;;;;;;4.46;91.51;100839.94;4970091;28;20039;-76
2020/12/20 07:46:44;;;;;;;31.00;19.27;;;;;;;4.49;91.07;100839.03;4958700;28;20046;-76
2020/12/20 07:49:14;;;;;;;31.10;19.40;;;;;;;4.46;90.44;100841.69;4964969;28;20227;-77
2020/12/20 07:51:41;;;;;;;31.33;20.50;;;;;;;4.39;91.74;100850.56;4967636;28;20128;-78
2020/12/20 07:54:12;;;;;;;33.55;21.13;;;;;;;4.29;91.78;100839.31;4967427;28;20046;-77
2020/12/20 07:56:40;;;;;;;35.47;21.27;;;;;;;4.20;91.90;100847.31;4977368;28;20058;-77
2020/12/20 07:59:09;;;;;;;35.45;21.17;;;;;;;4.06;92.15;100849.28;4970270;28;20493;-79
2020/12/20 08:01:37;;;;;;;37.42;21.52;;;;;;;4.04;93.44;100845.78;4970961;28;20470;-77
2020/12/20 08:04:18;;;;;;;35.47;21.27;;;;;;;4.08;93.37;100852.75;4959786;28;20057;-76
2020/12/20 08:06:49;;;;;;;37.55;22.25;;;;;;;4.13;93.65;100845.66;4968132;28;20133;-76
2020/12/20 08:09:21;;;;;;;35.95;21.13;;;;;;;4.17;93.76;100852.59;4971732;28;20125;-78
2020/12/20 08:11:48;;;;;;;34.58;21.27;;;;;;;4.13;94.46;100851.78;4964070;28;20049;-76
2020/12/20 08:14:16;;;;;;;34.92;21.55;;;;;;;4.10;94.65;100856.19;4971897;28;20049;-78
2020/12/20 08:16:45;;;;;;;35.45;20.90;;;;;;;4.08;93.91;100843.13;4979475;28;20070;-82
2020/12/20 08:19:19;;;;;;;38.70;22.52;;;;;;;4.07;94.87;100841.38;4985866;28;20042;-77
2020/12/20 08:22:04;;;;;;;37.03;21.73;;;;;;;4.11;95.85;100837.81;4979444;28;20077;-78
2020/12/20 08:24:41;;;;;;;38.53;22.40;;;;;;;4.14;96.50;100839.53;4975729;28;20050;-78
2020/12/20 08:27:15;;;;;;;40.20;22.45;;;;;;;4.17;96.13;100844.75;4971904;28;20042;-78
2020/12/20 08:29:44;;;;;;;36.67;22.40;;;;;;;4.20;95.96;100855.19;4972226;28;20101;-78
2020/12/20 08:32:17;;;;;;;37.75;23.13;;;;;;;4.16;95.97;100853.50;4966675;28;20042;-76
2020/12/20 08:34:45;;;;;;;35.17;21.50;;;;;;;4.07;96.06;100853.63;4964249;28;20047;-77
2020/12/20 08:37:15;;;;;;;40.35;22.63;;;;;;;4.13;95.91;100871.88;4970743;28;20039;-77
2020/12/20 08:39:42;;;;;;;;;;;;;;;4.14;95.91;100876.22;4968980;28;20081;-77
2020/12/20 08:42:14;;;;;;;38.38;21.42;;;;;;;4.14;95.17;100868.38;4972699;28;19930;-76
2020/12/20 08:44:42;;;;;;;35.13;21.38;;;;;;;4.16;95.09;100870.09;4967915;28;20342;-79
2020/12/20 08:47:11;;;;;;;37.55;22.60;;;;;;;4.22;95.33;100871.75;4974679;28;20135;-75
2020/12/20 08:49:40;;;;;;;36.10;21.95;;;;;;;4.21;96.00;100873.53;4974162;28;20844;-75
2020/12/20 08:52:11;;;;;;;35.97;22.15;;;;;;;4.25;95.59;100873.50;4972341;28;20116;-76
2020/12/20 08:54:39;;;;;;;37.08;22.08;;;;;;;4.27;95.83;100876.94;4969429;28;20038;-76
2020/12/20 08:57:07;;;;;;;35.92;21.77;;;;;;;4.23;95.17;100866.50;4966432;28;20122;-77
2020/12/20 08:59:35;;;;;;;33.38;21.05;;;;;;;4.23;95.31;100869.13;4967673;28;20064;-77
2020/12/20 09:02:03;;;;;;;35.10;21.67;;;;;;;4.34;95.76;100881.22;4966260;28;20047;-78
2020/12/20 09:04:32;;;;;;;36.28;21.85;;;;;;;4.36;95.15;100877.69;4976264;28;20065;-77
2020/12/20 09:07:11;;;;;;;33.00;20.50;;;;;;;4.40;95.56;100884.63;4967842;28;20055;-79
2020/12/20 09:09:39;;;;;;;34.63;20.65;;;;;;;4.39;94.97;100890.75;4962873;28;20062;-76
2020/12/20 09:12:18;;;;;;;33.17;20.88;;;;;;;4.34;95.39;100894.31;4952634;28;20062;-79
2020/12/20 09:15:09;;;;;;;36.58;21.38;;;;;;;4.38;95.68;100894.25;4970017;28;20046;-77
2020/12/20 09:17:41;;;;;;;34.22;20.42;;;;;;;4.34;95.36;100882.06;4956498;28;20470;-79
2020/12/20 09:20:10;;;;;;;35.10;20.60;;;;;;;4.36;95.11;100893.41;4971993;28;20046;-78
2020/12/20 09:22:44;;;;;;;30.95;19.40;;;;;;;4.35;95.67;100880.31;4982688;28;20141;-76
2020/12/20 09:25:13;;;;;;;36.00;21.23;;;;;;;4.31;95.22;100891.72;4972474;28;20039;-76
2020/12/20 09:27:51;;;;;;;36.88;22.00;;;;;;;4.33;95.33;100893.44;4954163;28;20062;-77
2020/12/20 09:30:28;;;;;;;34.58;20.83;;;;;;;4.38;95.57;100901.25;4978377;28;20047;-81
2020/12/20 09:32:55;;;;;;;35.22;20.55;;;;;;;4.37;95.60;100896.91;4976884;28;20046;-76
2020/12/20 09:35:21;;;;;;;34.40;20.60;;;;;;;4.38;95.80;100898.66;4958765;28;20573;-78
2020/12/20 09:37:49;;;;;;;34.10;20.65;;;;;;;4.36;95.79;100905.66;4973270;28;20054;-77
2020/12/20 09:40:16;;;;;;;34.33;21.20;;;;;;;4.39;95.76;100901.25;4971503;28;20043;-76
2020/12/20 09:42:43;;;;;;;33.22;21.23;;;;;;;4.41;95.67;100906.44;4971822;28;20434;-78
2020/12/20 09:45:11;;;;;;;32.58;20.83;;;;;;;4.43;94.96;100902.91;4969850;28;20053;-78
2020/12/20 09:47:43;;;;;;;32.38;20.60;;;;;;;4.47;94.99;100914.25;4969052;28;20390;-77
2020/12/20 09:50:10;;;;;;;31.42;20.05;;;;;;;4.46;94.63;100913.38;4969702;28;20043;-78
2020/12/20 09:52:38;;;;;;;34.80;21.40;;;;;;;4.49;94.86;100913.34;4980572;28;20086;-76
2020/12/20 09:55:06;;;;;;;35.10;20.45;;;;;;;4.48;94.61;100905.47;4969038;28;20146;-78
2020/12/20 09:57:33;;;;;;;32.58;19.80;;;;;;;4.42;95.05;100908.19;4970496;28;20050;-77
2020/12/20 10:00:00;;;;;;;31.42;19.48;;;;;;;4.41;95.26;100909.06;4968439;28;20074;-76
2020/12/20 10:02:27;;;;;;;29.65;19.45;;;;;;;4.41;94.93;100920.41;4980848;28;20417;-82
2020/12/20 10:04:53;;;;;;;33.45;20.73;;;;;;;4.41;95.07;100917.81;4991589;28;20154;-82
2020/12/20 10:07:20;;;;;;;33.15;20.77;;;;;;;4.49;95.23;100913.34;4991273;28;20102;-83
2020/12/20 10:09:46;;;;;;;32.45;19.65;;;;;;;4.52;94.99;100917.69;4974659;28;20661;-77
2020/12/20 10:12:15;;;;;;;29.88;19.35;;;;;;;4.54;94.37;100913.28;4973942;28;20034;-76
2020/12/20 10:14:43;;;;;;;33.22;21.15;;;;;;;4.58;93.78;100917.56;4972223;28;20042;-77
2020/12/20 10:17:09;;;;;;;32.22;21.40;;;;;;;4.58;94.29;100917.56;4961327;28;20106;-80
2020/12/20 10:19:36;;;;;;;32.80;20.55;;;;;;;4.53;93.84;100914.16;4983508;28;20069;-77
2020/12/20 10:22:02;;;;;;;33.70;20.42;;;;;;;4.53;93.68;100908.91;4996489;28;20042;-82
2020/12/20 10:24:28;;;;;;;33.80;21.73;;;;;;;4.52;94.07;100905.44;4992234;28;20039;-79
2020/12/20 10:26:55;;;;;;;33.95;21.38;;;;;;;4.53;94.50;100911.53;4992649;28;20066;-84
2020/12/20 10:29:22;;;;;;;36.58;21.67;;;;;;;4.56;94.60;100911.50;4989411;28;20070;-81
2020/12/20 10:31:49;;;;;;;32.92;21.48;;;;;;;4.57;95.01;100915.84;4986378;28;20043;-77
2020/12/20 10:34:16;;;;;;;38.03;22.75;;;;;;;4.58;95.08;100910.56;4985887;28;20238;-77
2020/12/20 10:36:43;;;;;;;36.05;21.33;;;;;;;4.62;95.23;100913.16;4977187;28;20101;-77
2020/12/20 10:39:10;;;;;;;34.95;21.35;;;;;;;4.67;94.57;100911.34;4975450;28;20058;-80
2020/12/20 10:41:41;;;;;;;30.88;19.88;;;;;;;4.64;94.00;100900.88;4973093;28;20054;-80
2020/12/20 10:44:07;;;;;;;37.33;23.02;;;;;;;4.64;93.96;100901.75;4961791;28;20046;-76
2020/12/20 10:46:34;;;;;;;33.80;21.02;;;;;;;4.71;94.00;100899.91;4968529;28;20132;-76
2020/12/20 10:49:02;;;;;;;35.20;22.60;;;;;;;4.69;93.36;100892.06;4986400;28;20398;-77
2020/12/20 10:51:29;;;;;;;36.28;22.60;;;;;;;4.67;94.02;100896.47;4989885;28;20173;-76
2020/12/20 10:53:55;;;;;;;36.97;23.05;;;;;;;4.70;94.28;100892.94;4985545;28;20090;-80
2020/12/20 10:56:22;;;;;;;36.28;22.05;;;;;;;4.72;94.24;100893.78;4975946;28;20122;-79
2020/12/20 10:58:49;;;;;;;36.65;21.30;;;;;;;4.74;94.34;100902.47;4981644;28;20047;-78
2020/12/20 11:01:20;;;;;;;35.08;21.08;;;;;;;4.77;94.43;100889.31;4988338;28;20051;-78
2020/12/20 11:03:48;;;;;;;34.22;22.08;;;;;;;4.86;94.56;100899.69;4984826;28;20440;-78
2020/12/20 11:06:19;;;;;;;35.22;21.48;;;;;;;4.87;94.72;100896.19;4980298;28;20046;-79
2020/12/20 11:08:46;;;;;;;32.58;20.95;;;;;;;4.89;94.94;100897.84;4974122;28;20043;-78
2020/12/20 11:11:14;;;;;;;36.42;22.75;;;;;;;4.92;94.31;100889.94;4977091;28;20581;-76
2020/12/20 11:13:42;;;;;;;35.67;22.83;;;;;;;4.98;94.57;100891.59;4972945;28;20042;-79
2020/12/20 11:16:16;;;;;;;34.47;20.75;;;;;;;5.01;94.36;100886.31;4978041;28;20536;-80
2020/12/20 11:18:45;;;;;;;32.53;20.10;;;;;;;5.08;94.11;100889.69;4966601;28;20151;-78
2020/12/20 11:21:19;;;;;;;33.60;21.85;;;;;;;5.10;93.62;100875.66;4970480;28;20097;-77
2020/12/20 11:23:46;;;;;;;33.78;21.40;;;;;;;5.16;93.34;100883.44;4970163;28;20055;-77
2020/12/20 11:26:22;;;;;;;29.48;19.60;;;;;;;5.15;92.86;100873.81;4973593;28;20047;-80